Language: 


Des rapports , des résumés tant et plus, au choix de chacun....


Données statistiques de la station
Quotidien Rapport Février 15, 2017 Unités:  Anglais    Métrique   les deux
« Précédent Jour
Suivant Jour »
Quotidien Hebdomadaire Mensuel Annuel Actuel
  Haut: Bas: Moyen:
Température: 61.3 °F 37.9 °F 48.4 °F
Pt de rosée: 49.3 °F 32.5 °F 41.4 °F
Humidité: 96 % 61 % 77 %
Vitesse du vent: 16.6 mph 0 mph 3.5 mph
Rafales: 16.6 mph - -
Vent:- - SSW
Pression: 30.4 in 30.4 in -
Précipitation: 0 in    
Historical Graphs
 
 
Données statistiques pour Février 15, 2017
Heure Température Point de rosée Pression Vent Vitesse du vent Refales Humidité Pluie (taux horaire)
00:01 45.3 °F 37.2 °F 30.4 in SSE 3.6 mph 5.4 mph 73 % 0 in
00:06 45.1 °F 37 °F 30.4 in Calm   4.7 mph 73 % 0 in
00:11 45.1 °F 36.9 °F 30.4 in SSE 2.5 mph 4.9 mph 73 % 0 in
00:16 45.1 °F 36.9 °F 30.4 in Calm   4.9 mph 73 % 0 in
00:21 45.1 °F 37.2 °F 30.4 in Calm   3.4 mph 74 % 0 in
00:26 45 °F 37 °F 30.4 in SE 3.1 mph 4.3 mph 74 % 0 in
00:31 45 °F 37 °F 30.4 in SSE 1.1 mph 4.3 mph 74 % 0 in
00:36 45 °F 37 °F 30.4 in SSE 3.4 mph 5.6 mph 74 % 0 in
00:41 45 °F 37 °F 30.4 in Calm   5.6 mph 74 % 0 in
00:46 45 °F 37 °F 30.4 in SE 5.4 mph 6 mph 74 % 0 in
00:51 45 °F 37 °F 30.4 in SSE 2.2 mph 6 mph 74 % 0 in
00:56 44.8 °F 36.9 °F 30.4 in Calm   4.9 mph 74 % 0 in
01:01 44.4 °F 36.7 °F 30.4 in SSE 2.5 mph 3.6 mph 74 % 0 in
01:06 44.4 °F 36.7 °F 30.4 in Calm   2.5 mph 74 % 0 in
01:11 44.2 °F 36.7 °F 30.4 in Calm   2.5 mph 74 % 0 in
01:16 44.2 °F 36.7 °F 30.4 in Calm   4.9 mph 75 % 0 in
01:21 44.1 °F 36.7 °F 30.4 in SE 1.6 mph 4.9 mph 75 % 0 in
01:26 44.1 °F 36.7 °F 30.4 in SSE 6 mph 6 mph 75 % 0 in
01:31 43.9 °F 36.3 °F 30.4 in SSE 4.9 mph 7.2 mph 75 % 0 in
01:36 44.1 °F 36.7 °F 30.4 in SSE 5.8 mph 7.2 mph 75 % 0 in
01:41 44.2 °F 37 °F 30.4 in SSE 5.6 mph 6.5 mph 76 % 0 in
01:46 44.4 °F 37 °F 30.4 in South 3.8 mph 6 mph 75 % 0 in
01:51 44.4 °F 37 °F 30.4 in SE 4.3 mph 6.5 mph 75 % 0 in
02:07 45 °F 37.4 °F 30.4 in Calm   6.5 mph 75 % 0 in
02:12 44.8 °F 37.2 °F 30.4 in SSE 4 mph 6.5 mph 75 % 0 in
02:17 44.4 °F 36.7 °F 30.4 in Calm   5.6 mph 74 % 0 in
02:22 44.4 °F 36.7 °F 30.4 in SSE 1.1 mph 5.6 mph 74 % 0 in
02:27 44.8 °F 36.9 °F 30.4 in Calm   5.6 mph 74 % 0 in
02:32 44.8 °F 36.9 °F 30.4 in South 2.2 mph 5.4 mph 74 % 0 in
02:37 44.8 °F 36.9 °F 30.4 in Calm   3.4 mph 74 % 0 in
02:42 45 °F 37 °F 30.4 in South 4 mph 4 mph 74 % 0 in
02:47 45.1 °F 37.2 °F 30.4 in SSE 1.3 mph 6 mph 74 % 0 in
02:52 45.1 °F 37.2 °F 30.4 in SSE 4 mph 6 mph 74 % 0 in
02:57 45.1 °F 37.2 °F 30.4 in Calm   5.4 mph 74 % 0 in
03:02 45.1 °F 37.4 °F 30.4 in SSE 3.6 mph 4.3 mph 74 % 0 in
03:07 45.1 °F 37.4 °F 30.4 in South 3.6 mph 4.3 mph 74 % 0 in
03:12 45.3 °F 37.6 °F 30.4 in Calm   4.7 mph 74 % 0 in
03:17 45.3 °F 37.6 °F 30.4 in Calm   4.7 mph 74 % 0 in
03:22 45.3 °F 37.6 °F 30.4 in Calm   3.8 mph 74 % 0 in
03:27 45.3 °F 37.6 °F 30.4 in Calm   3.8 mph 74 % 0 in
03:32 45.3 °F 37.2 °F 30.4 in Calm   5.8 mph 73 % 0 in
03:37 45.1 °F 37 °F 30.4 in Calm   5.8 mph 73 % 0 in
03:42 45.1 °F 37 °F 30.4 in Calm   3.8 mph 73 % 0 in
03:47 45.1 °F 37 °F 30.4 in Calm   3.8 mph 73 % 0 in
03:52 45.3 °F 37.6 °F 30.4 in Calm   4.5 mph 74 % 0 in
03:57 45.7 °F 37.4 °F 30.4 in Calm   6.3 mph 73 % 0 in
04:02 45.7 °F 37.4 °F 30.4 in Calm   6.3 mph 73 % 0 in
04:07 45.7 °F 37.4 °F 30.4 in Calm   2.5 mph 73 % 0 in
04:12 45.9 °F 37.6 °F 30.4 in SSE 4.3 mph 6.3 mph 73 % 0 in
04:17 45.9 °F 37.6 °F 30.4 in Calm   6.3 mph 73 % 0 in
04:22 45.7 °F 37 °F 30.4 in Calm   4.3 mph 72 % 0 in
04:27 45.1 °F 36.7 °F 30.4 in Calm   3.6 mph 72 % 0 in
04:32 45.1 °F 36.7 °F 30.4 in Calm   4 mph 72 % 0 in
04:37 44.8 °F 36 °F 30.4 in South 2 mph 6 mph 71 % 0 in
04:42 44.4 °F 35.8 °F 30.4 in Calm   6 mph 71 % 0 in
04:47 44.2 °F 35.4 °F 30.4 in SE 3.8 mph 6 mph 71 % 0 in
04:52 44.1 °F 35.4 °F 30.4 in Calm   5.8 mph 72 % 0 in
04:57 43.9 °F 35.4 °F 30.4 in Calm   5.4 mph 72 % 0 in
05:02 43.3 °F 34.9 °F 30.4 in Calm   5.4 mph 72 % 0 in
05:07 43.2 °F 34.7 °F 30.4 in Calm   3.4 mph 72 % 0 in
05:12 42.8 °F 34.3 °F 30.4 in SSE 5.4 mph 5.6 mph 72 % 0 in
05:17 42.8 °F 34.7 °F 30.4 in Calm   5.6 mph 73 % 0 in
05:23 42.6 °F 34.5 °F 30.4 in Calm   3.6 mph 73 % 0 in
05:27 42.3 °F 34.2 °F 30.4 in Calm   3.6 mph 73 % 0 in
05:33 41.9 °F 34 °F 30.4 in Calm   2.2 mph 73 % 0 in
05:38 41.5 °F 34 °F 30.4 in Calm   2.2 mph 74 % 0 in
05:43 41.5 °F 34 °F 30.4 in Calm   1.1 mph 74 % 0 in
05:48 41.5 °F 34.2 °F 30.4 in Calm   4.3 mph 75 % 0 in
05:53 41.5 °F 34.2 °F 30.4 in SSE 2.5 mph 5.6 mph 75 % 0 in
05:58 41.5 °F 34.2 °F 30.4 in Calm   5.6 mph 75 % 0 in
06:03 41.4 °F 34 °F 30.4 in Calm   2.9 mph 75 % 0 in
06:08 41.2 °F 33.8 °F 30.4 in Calm   1.3 mph 75 % 0 in
06:13 41 °F 33.6 °F 30.4 in Calm   3.6 mph 75 % 0 in
06:18 40.8 °F 33.4 °F 30.4 in Calm   3.6 mph 75 % 0 in
06:23 40.8 °F 33.8 °F 30.4 in Calm   2.9 mph 76 % 0 in
06:28 40.8 °F 33.8 °F 30.4 in Calm   2.9 mph 76 % 0 in
06:33 41 °F 34 °F 30.4 in SSE 2.7 mph 2.7 mph 76 % 0 in
06:38 40.8 °F 33.8 °F 30.4 in Calm   2.7 mph 76 % 0 in
06:43 40.6 °F 33.6 °F 30.4 in Calm   2.7 mph 76 % 0 in
06:48 40.3 °F 33.3 °F 30.4 in Calm   2.7 mph 76 % 0 in
06:53 39.9 °F 33.1 °F 30.4 in Calm   1.3 mph 76 % 0 in
06:58 39.7 °F 33.1 °F 30.4 in Calm   2.2 mph 77 % 0 in
07:03 39.7 °F 33.1 °F 30.4 in Calm   2.2 mph 77 % 0 in
07:08 39.6 °F 33.1 °F 30.4 in Calm     77 % 0 in
07:13 39.4 °F 33.1 °F 30.4 in Calm     78 % 0 in
07:18 39 °F 32.7 °F 30.4 in Calm     78 % 0 in
07:23 38.8 °F 32.5 °F 30.4 in Calm     78 % 0 in
07:28 38.8 °F 32.9 °F 30.4 in Calm     79 % 0 in
07:33 38.8 °F 32.9 °F 30.4 in Calm     79 % 0 in
07:38 38.5 °F 32.9 °F 30.4 in Calm     80 % 0 in
07:43 38.5 °F 32.9 °F 30.4 in Calm   0.9 mph 80 % 0 in
07:48 38.1 °F 32.5 °F 30.4 in South 0.9 mph 2.7 mph 80 % 0 in
07:53 38.1 °F 32.5 °F 30.4 in Calm   2.7 mph 80 % 0 in
07:58 38.1 °F 32.9 °F 30.4 in Calm   0.9 mph 81 % 0 in
08:03 38.1 °F 33.3 °F 30.4 in Calm     82 % 0 in
08:08 38.1 °F 33.3 °F 30.4 in Calm     82 % 0 in
08:13 37.9 °F 33.1 °F 30.4 in Calm     82 % 0 in
08:18 38.1 °F 33.4 °F 30.4 in Calm   1.1 mph 83 % 0 in
08:23 38.1 °F 33.4 °F 30.4 in Calm   1.1 mph 83 % 0 in
08:28 38.5 °F 34 °F 30.4 in Calm     84 % 0 in
08:33 38.5 °F 34.2 °F 30.4 in Calm     84 % 0 in
08:38 38.8 °F 34.9 °F 30.4 in Calm     85 % 0 in
08:43 39.4 °F 35.2 °F 30.4 in Calm     85 % 0 in
08:48 39.7 °F 35.6 °F 30.4 in Calm     85 % 0 in
08:53 40.3 °F 36.1 °F 30.4 in Calm   2.9 mph 85 % 0 in
08:58 41 °F 36.9 °F 30.4 in Calm   2.9 mph 85 % 0 in
09:03 41.7 °F 37.6 °F 30.4 in Calm   2.5 mph 85 % 0 in
09:08 42.4 °F 38.1 °F 30.4 in SE 3.8 mph 4.3 mph 85 % 0 in
09:13 43.2 °F 38.8 °F 30.4 in SSE 4 mph 6.3 mph 85 % 0 in
09:18 43.9 °F 39.4 °F 30.4 in Calm   6.3 mph 84 % 0 in
09:23 44.2 °F 39.6 °F 30.4 in SSE 2.5 mph 6.3 mph 83 % 0 in
09:28 45 °F 39.7 °F 30.4 in SSE 2.2 mph 6.3 mph 82 % 0 in
09:33 45.7 °F 40.1 °F 30.4 in SSE 2.5 mph 6.3 mph 81 % 0 in
09:38 45.9 °F 40.1 °F 30.4 in SSE 1.3 mph 5.4 mph 80 % 0 in
09:43 46.2 °F 40.1 °F 30.4 in SW 6.5 mph 6.5 mph 79 % 0 in
09:48 46.9 °F 40.5 °F 30.4 in South 1.3 mph 6.5 mph 78 % 0 in
09:53 47.7 °F 41.2 °F 30.4 in Calm   5.4 mph 78 % 0 in
09:58 47.7 °F 40.5 °F 30.4 in South 2.5 mph 5.8 mph 76 % 0 in
10:03 47.5 °F 40.3 °F 30.4 in South 5.6 mph 5.8 mph 76 % 0 in
10:08 48 °F 40.5 °F 30.4 in South 3.1 mph 5.6 mph 75 % 0 in
10:13 48.6 °F 41 °F 30.4 in South 1.6 mph 5.4 mph 75 % 0 in
10:18 49.3 °F 41.7 °F 30.4 in SSE 4.9 mph 5.6 mph 75 % 0 in
10:23 49.3 °F 41.4 °F 30.4 in SSW 6.3 mph 6.3 mph 74 % 0 in
10:28 49.1 °F 40.8 °F 30.4 in SSE 2.7 mph 6.3 mph 73 % 0 in
10:33 48.9 °F 40.6 °F 30.4 in Calm   10.1 mph 73 % 0 in
10:38 49.1 °F 40.8 °F 30.4 in SSW 2.7 mph 10.1 mph 73 % 0 in
10:43 49.3 °F 41.4 °F 30.4 in South 3.8 mph 5.6 mph 74 % 0 in
10:48 49.6 °F 41.4 °F 30.4 in SW 5.4 mph 6.3 mph 73 % 0 in
10:53 50.4 °F 42.4 °F 30.4 in South 0.9 mph 6.3 mph 74 % 0 in
10:58 51.4 °F 43 °F 30.4 in South 4.9 mph 6.5 mph 73 % 0 in
11:03 51.6 °F 42.4 °F 30.4 in South 9.8 mph 9.8 mph 71 % 0 in
11:08 52.2 °F 43 °F 30.4 in South 2.9 mph 10.3 mph 71 % 0 in
11:13 52.5 °F 43.2 °F 30.4 in SSE 5.6 mph 10.3 mph 70 % 0 in
11:18 53.2 °F 43.5 °F 30.4 in South 6 mph 8.5 mph 70 % 0 in
11:23 53.2 °F 43 °F 30.4 in SSW 7.2 mph 8.5 mph 68 % 0 in
11:28 53.2 °F 43 °F 30.4 in SSE 8.5 mph 8.5 mph 68 % 0 in
11:33 53.2 °F 42.6 °F 30.4 in South 7.2 mph 8.7 mph 67 % 0 in
11:38 53.4 °F 42.8 °F 30.4 in South 8.1 mph 10.7 mph 67 % 0 in
11:44 54 °F 43.5 °F 30.4 in SSE 6.3 mph 10.7 mph 68 % 0 in
11:49 54.1 °F 43.9 °F 30.4 in SSE 8.5 mph 9.6 mph 68 % 0 in
11:54 54.3 °F 43.7 °F 30.4 in SSW 5.6 mph 8.5 mph 67 % 0 in
11:59 54.9 °F 44.2 °F 30.4 in South 4.7 mph 8.5 mph 67 % 0 in
12:04 55.2 °F 44.4 °F 30.4 in South 7.6 mph 8.7 mph 67 % 0 in
12:09 55.6 °F 44.8 °F 30.4 in SSW 6.5 mph 9.6 mph 67 % 0 in
12:14 55.9 °F 45.1 °F 30.4 in South 8.7 mph 9.6 mph 67 % 0 in
12:19 56.1 °F 44.6 °F 30.4 in SSE 7.8 mph 10.5 mph 65 % 0 in
12:24 56.1 °F 45 °F 30.4 in SSE 7.6 mph 13 mph 66 % 0 in
12:29 56.7 °F 45.5 °F 30.4 in ESE 5.8 mph 13 mph 66 % 0 in
12:34 56.7 °F 45.1 °F 30.4 in SSW 5.6 mph 10.1 mph 65 % 0 in
12:39 56.8 °F 45.7 °F 30.4 in SSW 9.8 mph 12.3 mph 66 % 0 in
12:44 57 °F 45.3 °F 30.4 in SSE 7.6 mph 12.3 mph 65 % 0 in
12:49 57.2 °F 46 °F 30.4 in South 5.8 mph 9.8 mph 66 % 0 in
12:54 57.7 °F 46.6 °F 30.4 in South 8.1 mph 11 mph 66 % 0 in
12:59 57.7 °F 46.6 °F 30.4 in South 4.3 mph 11 mph 66 % 0 in
13:04 57.9 °F 46.2 °F 30.4 in SSE 4 mph 11 mph 65 % 0 in
13:09 58.3 °F 46.9 °F 30.4 in South 4.9 mph 11 mph 66 % 0 in
13:14 58.6 °F 46.9 °F 30.4 in SSE 9.8 mph 10.5 mph 65 % 0 in
13:19 58.8 °F 47.1 °F 30.4 in South 4.3 mph 10.5 mph 65 % 0 in
13:24 59.2 °F 47.5 °F 30.4 in South 4.3 mph 11 mph 65 % 0 in
13:29 59.2 °F 47.5 °F 30.4 in SSE 6.5 mph 11 mph 65 % 0 in
13:39 59.4 °F 47.7 °F 30.4 in South 5.8 mph 12.5 mph 65 % 0 in
13:44 59.7 °F 47.8 °F 30.4 in South 7.2 mph 10.7 mph 65 % 0 in
13:49 59.9 °F 48 °F 30.4 in SW 6.7 mph 10.1 mph 65 % 0 in
13:54 60.1 °F 48.2 °F 30.4 in SSW 8.5 mph 13 mph 65 % 0 in
14:00 60.8 °F 49.3 °F 30.4 in SSE 7.4 mph 13 mph 66 % 0 in
14:05 61 °F 49.1 °F 30.4 in South 4.3 mph 11.2 mph 65 % 0 in
14:10 61.2 °F 49.3 °F 30.4 in SSW 7.4 mph 11.2 mph 65 % 0 in
14:15 61.2 °F 48.4 °F 30.4 in South 10.7 mph 13.2 mph 63 % 0 in
14:20 61.2 °F 48.7 °F 30.4 in South 5.4 mph 13.2 mph 64 % 0 in
14:25 61.2 °F 48.7 °F 30.4 in South 10.5 mph 13.6 mph 64 % 0 in
14:30 61.2 °F 48.4 °F 30.4 in South 10.3 mph 13.6 mph 63 % 0 in
14:35 61.2 °F 48.4 °F 30.4 in South 12.5 mph 13.9 mph 63 % 0 in
14:40 61 °F 47.8 °F 30.4 in South 8.5 mph 13.9 mph 62 % 0 in
14:45 61.2 °F 48 °F 30.4 in SSW 9.8 mph 12.5 mph 62 % 0 in
14:50 61.3 °F 48.6 °F 30.4 in SW 5.6 mph 10.7 mph 63 % 0 in
14:55 61.2 °F 47.5 °F 30.4 in South 8.5 mph 13.4 mph 61 % 0 in
15:00 61.2 °F 47.5 °F 30.4 in SSW 8.7 mph 13.4 mph 61 % 0 in
15:05 61.3 °F 48 °F 30.4 in South 10.7 mph 11.9 mph 62 % 0 in
15:10 61.2 °F 48.4 °F 30.4 in SW 7.2 mph 11.9 mph 63 % 0 in
15:15 61.2 °F 48.4 °F 30.4 in SSW 12.1 mph 12.1 mph 63 % 0 in
15:20 61 °F 48.2 °F 30.4 in South 12.3 mph 12.5 mph 63 % 0 in
15:25 61.2 °F 48.4 °F 30.4 in SSW 5.4 mph 12.5 mph 63 % 0 in
15:31 61 °F 48.2 °F 30.4 in SSW 9.8 mph 11.2 mph 63 % 0 in
15:36 60.4 °F 47.3 °F 30.4 in SSW 6.9 mph 12.5 mph 62 % 0 in
15:41 60.3 °F 47.7 °F 30.4 in SSW 11.4 mph 12.5 mph 63 % 0 in
15:46 59.2 °F 46.9 °F 30.4 in SSW 6.3 mph 13.2 mph 64 % 0 in
15:51 59 °F 47.1 °F 30.4 in SW 6.5 mph 13.2 mph 65 % 0 in
15:56 59.5 °F 48 °F 30.4 in South 8.7 mph 12.3 mph 66 % 0 in
16:01 59.5 °F 48 °F 30.4 in SSW 10.5 mph 14.8 mph 66 % 0 in
16:06 59.5 °F 48 °F 30.4 in South 10.1 mph 14.8 mph 66 % 0 in
16:11 59.5 °F 48.6 °F 30.4 in South 16.6 mph 16.6 mph 67 % 0 in
16:16 59.4 °F 48 °F 30.4 in South 10.1 mph 16.6 mph 66 % 0 in
16:21 59.4 °F 48.4 °F 30.4 in South 8.5 mph 12.8 mph 67 % 0 in
16:26 59 °F 48 °F 30.4 in South 7.4 mph 12.5 mph 67 % 0 in
16:31 58.5 °F 47.8 °F 30.4 in South 7.2 mph 11 mph 68 % 0 in
16:36 57.9 °F 47.8 °F 30.4 in SSW 7.6 mph 11 mph 69 % 0 in
16:41 57.4 °F 47.7 °F 30.4 in SSW 6 mph 9.8 mph 70 % 0 in
16:46 57 °F 47.5 °F 30.4 in South 6 mph 9.8 mph 70 % 0 in
16:51 56.8 °F 47.8 °F 30.4 in SSW 4.9 mph 8.5 mph 72 % 0 in
16:56 56.8 °F 47.8 °F 30.4 in WSW 5.4 mph 8.1 mph 72 % 0 in
17:01 56.7 °F 48 °F 30.4 in South 5.6 mph 7.8 mph 73 % 0 in
17:06 56.7 °F 48 °F 30.4 in South 4.9 mph 8.1 mph 73 % 0 in
17:11 56.5 °F 48.4 °F 30.4 in South 4 mph 10.3 mph 74 % 0 in
17:16 56.5 °F 48.4 °F 30.4 in South 3.6 mph 10.3 mph 74 % 0 in
17:21 56.3 °F 48.2 °F 30.4 in SSW 6.3 mph 9.8 mph 74 % 0 in
17:26 56.3 °F 48.2 °F 30.4 in South 4.3 mph 7.4 mph 74 % 0 in
17:31 56.1 °F 48.4 °F 30.4 in WSW 3.8 mph 6.3 mph 75 % 0 in
17:41 55.2 °F 48.2 °F 30.4 in WSW 6.7 mph 13.6 mph 77 % 0 in
17:46 54.3 °F 47.7 °F 30.4 in West 5.6 mph 12.3 mph 78 % 0 in
17:51 54 °F 47.5 °F 30.4 in West 5.4 mph 8.1 mph 79 % 0 in
17:56 53.4 °F 47.5 °F 30.4 in West 3.1 mph 7.6 mph 80 % 0 in
18:01 53.2 °F 47.5 °F 30.4 in West 3.8 mph 5.8 mph 81 % 0 in
18:06 52.9 °F 47.5 °F 30.4 in WSW 5.6 mph 6.7 mph 82 % 0 in
18:11 52.5 °F 47.3 °F 30.4 in WSW 5.6 mph 7.4 mph 82 % 0 in
18:16 52.5 °F 47.7 °F 30.4 in West 7.8 mph 7.8 mph 83 % 0 in
18:21 52.3 °F 47.7 °F 30.4 in West 5.6 mph 7.8 mph 84 % 0 in
18:26 52.2 °F 47.5 °F 30.4 in West 5.8 mph 7.6 mph 84 % 0 in
18:31 51.8 °F 47.1 °F 30.4 in WSW 5.8 mph 8.1 mph 84 % 0 in
18:36 51.6 °F 46.9 °F 30.4 in WSW 5.8 mph 8.1 mph 84 % 0 in
18:41 51.3 °F 46.9 °F 30.4 in WSW 5.8 mph 7.8 mph 85 % 0 in
18:46 51.1 °F 46.8 °F 30.4 in West 5.4 mph 7.6 mph 85 % 0 in
18:51 50.9 °F 46.6 °F 30.4 in WSW 3.6 mph 5.8 mph 85 % 0 in
18:56 50.5 °F 46.2 °F 30.4 in WSW 3.6 mph 5.8 mph 85 % 0 in
19:02 50.4 °F 46 °F 30.4 in WSW 3.1 mph 4 mph 85 % 0 in
19:07 50.2 °F 46 °F 30.4 in West 3.8 mph 4 mph 86 % 0 in
19:12 50 °F 46 °F 30.4 in WSW 3.4 mph 4 mph 86 % 0 in
19:17 50 °F 46 °F 30.4 in West 3.1 mph 3.8 mph 86 % 0 in
19:22 50 °F 46.2 °F 30.4 in West 3.8 mph 4.3 mph 87 % 0 in
19:27 49.8 °F 46 °F 30.4 in WSW 2.9 mph 4.3 mph 87 % 0 in
19:32 49.8 °F 46.4 °F 30.4 in WSW 3.4 mph 3.8 mph 88 % 0 in
19:37 49.6 °F 46.2 °F 30.4 in West 3.8 mph 4 mph 88 % 0 in
19:42 49.6 °F 46.2 °F 30.4 in WSW 3.6 mph 4 mph 88 % 0 in
19:47 49.6 °F 46.6 °F 30.4 in West 3.6 mph 5.4 mph 89 % 0 in
19:52 49.6 °F 46.6 °F 30.4 in WSW 6 mph 6 mph 89 % 0 in
19:57 49.6 °F 46.6 °F 30.4 in West 5.8 mph 6 mph 89 % 0 in
20:02 49.8 °F 47.3 °F 30.4 in WSW 5.8 mph 6 mph 91 % 0 in
20:07 49.8 °F 47.3 °F 30.4 in West 3.8 mph 6.5 mph 91 % 0 in
20:12 49.6 °F 47.1 °F 30.4 in West 6.3 mph 7.6 mph 91 % 0 in
20:17 49.3 °F 46.8 °F 30.4 in West 4 mph 7.6 mph 91 % 0 in
20:22 49.1 °F 46.6 °F 30.4 in West 2.7 mph 7.2 mph 91 % 0 in
20:27 48.9 °F 46.4 °F 30.4 in WSW 3.8 mph 7.8 mph 91 % 0 in
20:32 48.7 °F 46.2 °F 30.4 in West 4.3 mph 7.8 mph 91 % 0 in
20:42 48.4 °F 45.7 °F 30.4 in West 3.4 mph 6.5 mph 90 % 0 in
20:47 48 °F 45.3 °F 30.4 in West 3.4 mph 6.5 mph 90 % 0 in
20:52 47.7 °F 45 °F 30.4 in WNW 2.7 mph 6.3 mph 90 % 0 in
20:57 47.3 °F 44.6 °F 30.4 in West 4.3 mph 5.6 mph 90 % 0 in
21:02 46.9 °F 44.2 °F 30.4 in West 3.8 mph 5.6 mph 90 % 0 in
21:03 46.9 °F 44.2 °F 30.4 in WSW 4 mph 5.6 mph 90 % 0 in
21:08 46.6 °F 43.9 °F 30.4 in WSW 3.4 mph 5.6 mph 90 % 0 in
21:13 46 °F 43.2 °F 30.4 in WSW 2.5 mph 4.9 mph 89 % 0 in
21:18 45.1 °F 42.1 °F 30.4 in WSW 3.1 mph 3.8 mph 89 % 0 in
21:23 44.8 °F 41.7 °F 30.4 in WSW 3.4 mph 3.8 mph 89 % 0 in
21:28 44.2 °F 41.2 °F 30.4 in Calm   4.3 mph 89 % 0 in
21:33 44.2 °F 41.4 °F 30.4 in WSW 4.9 mph 4.9 mph 90 % 0 in
21:38 44.8 °F 42.3 °F 30.4 in WSW 5.4 mph 6 mph 91 % 0 in
21:43 45.1 °F 43 °F 30.4 in West 3.6 mph 6 mph 92 % 0 in
21:48 45.1 °F 43.3 °F 30.4 in West 4.3 mph 5.6 mph 93 % 0 in
21:53 45.1 °F 43.3 °F 30.4 in West 4.9 mph 5.8 mph 93 % 0 in
21:58 45.1 °F 43.3 °F 30.4 in West 3.6 mph 6 mph 93 % 0 in
22:03 44.8 °F 42.4 °F 30.4 in West 3.8 mph 6 mph 92 % 0 in
22:08 44.2 °F 42.1 °F 30.4 in West 4 mph 4.3 mph 92 % 0 in
22:13 44.2 °F 42.3 °F 30.4 in WSW 6 mph 6 mph 92 % 0 in
22:18 44.4 °F 42.6 °F 30.4 in West 3.6 mph 6 mph 93 % 0 in
22:23 44.8 °F 43.2 °F 30.4 in West 3.1 mph 5.4 mph 94 % 0 in
22:28 44.2 °F 42.3 °F 30.4 in West 2.9 mph 5.4 mph 93 % 0 in
22:33 43.5 °F 41.7 °F 30.4 in Calm   4.3 mph 93 % 0 in
22:38 43.5 °F 41.5 °F 30.4 in Calm   3.6 mph 93 % 0 in
22:43 43.2 °F 41.2 °F 30.4 in Calm   2.9 mph 93 % 0 in
22:48 42.8 °F 40.8 °F 30.4 in Calm     93 % 0 in
22:53 42.4 °F 40.5 °F 30.4 in Calm   1.1 mph 93 % 0 in
22:58 42.1 °F 40.3 °F 30.4 in Calm   1.1 mph 93 % 0 in
23:03 41.9 °F 39.9 °F 30.4 in Calm     93 % 0 in
23:08 41.5 °F 39.7 °F 30.4 in Calm   0.9 mph 93 % 0 in
23:13 41 °F 39 °F 30.4 in Calm   0.9 mph 93 % 0 in
23:18 40.8 °F 39 °F 30.4 in Calm   2.5 mph 93 % 0 in
23:23 40.8 °F 39.2 °F 30.4 in West 3.1 mph 3.6 mph 94 % 0 in
23:28 40.6 °F 39.4 °F 30.4 in Calm   3.6 mph 95 % 0 in
23:33 40.6 °F 39.4 °F 30.4 in Calm   3.4 mph 95 % 0 in
23:38 40.3 °F 39 °F 30.4 in Calm     95 % 0 in
23:48 40.5 °F 39.4 °F 30.4 in Calm     96 % 0 in
23:53 40.3 °F 39.2 °F 30.4 in Calm     96 % 0 in
23:58 40.1 °F 39 °F 30.4 in Calm     96 % 0 in
Le Gheer Warneton
Courtoisie de Weather Underground - 2.5 mb

Mise a jour : 17-12-17 08:47:12
Généré par Cumulus 1.9.4 (1099)